Time;durP1;ratioP1;P1;durP2;ratioP2;P2;SDS_P1;SDS_P2;PMS_P1;PMS_P2;Temp;Humidity;BMP_temperature;BMP_pressure;BME280_temperature;BME280_humidity;BME280_pressure;Samples;Min_cycle;Max_cycle;Signal;HPM_P1;HPM_P2
2021/09/25 00:01:16;;;;;;;11.50;9.60;;;13.10;99.90;;;;;;5105225;28;20231;-83
2021/09/25 00:03:43;;;;;;;13.07;10.65;;;13.10;99.90;;;;;;5114009;28;20228;-82
2021/09/25 00:06:10;;;;;;;13.13;10.60;;;13.10;99.90;;;;;;5112293;28;20288;-82
2021/09/25 00:08:37;;;;;;;13.48;10.98;;;13.00;99.90;;;;;;5101468;28;20284;-82
2021/09/25 00:11:04;;;;;;;13.60;10.90;;;13.00;99.90;;;;;;5099216;28;20277;-83
2021/09/25 00:13:33;;;;;;;13.35;10.55;;;12.90;99.90;;;;;;5098969;28;20673;-82
2021/09/25 00:16:00;;;;;;;10.68;9.57;;;12.90;99.90;;;;;;5099138;28;20720;-82
2021/09/25 00:18:27;;;;;;;12.90;10.20;;;12.80;99.90;;;;;;5099328;28;20205;-81
2021/09/25 00:20:54;;;;;;;11.57;10.38;;;12.80;99.90;;;;;;5098625;28;20251;-83
2021/09/25 00:23:20;;;;;;;10.40;9.23;;;12.70;99.90;;;;;;5098764;28;20252;-82
2021/09/25 00:25:47;;;;;;;13.00;10.57;;;12.70;99.90;;;;;;5099423;28;20252;-82
2021/09/25 00:28:14;;;;;;;11.95;10.27;;;12.70;99.90;;;;;;5100061;28;20237;-83
2021/09/25 00:30:43;;;;;;;13.50;10.45;;;12.60;99.90;;;;;;5100603;28;20240;-81
2021/09/25 00:33:09;;;;;;;12.10;10.68;;;12.60;99.90;;;;;;5102133;28;20202;-81
2021/09/25 00:35:36;;;;;;;11.10;9.85;;;12.50;99.90;;;;;;5103175;28;20267;-81
2021/09/25 00:38:04;;;;;;;11.30;10.20;;;12.50;99.90;;;;;;5113742;28;20209;-82
2021/09/25 00:40:32;;;;;;;12.45;11.02;;;12.40;99.90;;;;;;5115659;28;20204;-82
2021/09/25 00:43:01;;;;;;;12.35;10.73;;;12.40;99.90;;;;;;5116548;28;20225;-80
2021/09/25 00:45:28;;;;;;;11.35;9.70;;;12.40;99.90;;;;;;5114182;28;20645;-82
2021/09/25 00:47:56;;;;;;;11.50;9.90;;;12.40;99.90;;;;;;5110990;28;20578;-81
2021/09/25 00:50:27;;;;;;;11.18;10.07;;;12.30;99.90;;;;;;5103038;28;20206;-81
2021/09/25 00:52:55;;;;;;;12.18;10.63;;;12.30;99.90;;;;;;5102666;28;20234;-82
2021/09/25 00:55:22;;;;;;;12.95;10.52;;;12.30;99.90;;;;;;5101372;28;20253;-81
2021/09/25 00:57:53;;;;;;;14.60;10.52;;;12.30;99.90;;;;;;5101158;28;20219;-81
2021/09/25 01:00:20;;;;;;;11.32;9.73;;;12.30;99.90;;;;;;5101930;28;20194;-81
2021/09/25 01:02:48;;;;;;;12.80;10.80;;;12.30;99.90;;;;;;5104035;28;20303;-81
2021/09/25 01:05:19;;;;;;;13.43;11.95;;;12.30;99.90;;;;;;5113387;28;20326;-81
2021/09/25 01:08:01;;;;;;;16.33;10.40;;;12.20;99.90;;;;;;5114741;28;20200;-80
2021/09/25 01:10:35;;;;;;;13.48;11.13;;;12.20;99.90;;;;;;5093539;28;20268;-79
2021/09/25 01:13:47;;;;;;;11.27;10.00;;;12.20;99.90;;;;;;5085622;28;20220;-80
2021/09/25 01:16:14;;;;;;;13.85;10.75;;;12.10;99.90;;;;;;5083427;28;20210;-80
2021/09/25 01:18:41;;;;;;;13.13;11.60;;;12.10;99.90;;;;;;5080221;28;20238;-80
2021/09/25 01:21:10;;;;;;;13.35;10.65;;;12.00;99.90;;;;;;5079738;28;20229;-80
2021/09/25 01:23:38;;;;;;;11.88;10.18;;;11.90;99.90;;;;;;5084178;28;20232;-80
2021/09/25 01:26:06;;;;;;;13.32;11.07;;;11.90;99.90;;;;;;5094844;28;20234;-82
2021/09/25 01:28:35;;;;;;;13.25;10.80;;;11.90;99.90;;;;;;5097382;28;20189;-82
2021/09/25 01:31:03;;;;;;;11.93;10.60;;;11.90;99.90;;;;;;5096752;28;20209;-82
2021/09/25 01:33:33;;;;;;;11.95;10.65;;;11.90;99.90;;;;;;5096712;28;20206;-82
2021/09/25 01:36:00;;;;;;;12.40;10.20;;;11.90;99.90;;;;;;5091096;28;20259;-82
2021/09/25 01:38:28;;;;;;;14.85;10.10;;;11.90;99.90;;;;;;5087906;28;20213;-82
2021/09/25 01:40:55;;;;;;;11.13;9.93;;;11.80;99.90;;;;;;5085480;28;20732;-82
2021/09/25 01:43:22;;;;;;;11.50;9.23;;;11.80;99.90;;;;;;5085735;28;20213;-82
2021/09/25 01:45:49;;;;;;;16.30;12.07;;;11.70;99.90;;;;;;5106411;28;20263;-82
2021/09/25 01:48:18;;;;;;;14.00;10.50;;;11.70;99.90;;;;;;5105394;28;20299;-81
2021/09/25 01:50:46;;;;;;;14.27;9.95;;;11.80;99.90;;;;;;5114118;28;20226;-80
2021/09/25 01:53:14;;;;;;;11.93;9.55;;;11.80;99.90;;;;;;5113368;28;20268;-81
2021/09/25 01:55:42;;;;;;;12.00;10.80;;;11.80;99.90;;;;;;5116414;28;20233;-80
2021/09/25 01:58:09;;;;;;;10.52;9.40;;;11.80;99.90;;;;;;5116022;28;20205;-82
2021/09/25 02:00:37;;;;;;;11.35;9.50;;;11.70;99.90;;;;;;5108049;28;20197;-81
2021/09/25 02:03:07;;;;;;;14.50;10.38;;;11.70;99.90;;;;;;5108302;28;20205;-82
2021/09/25 02:05:34;;;;;;;12.80;9.60;;;11.70;99.90;;;;;;5106057;28;20228;-80
2021/09/25 02:08:03;;;;;;;13.00;9.88;;;11.70;99.90;;;;;;5103735;28;20209;-81
2021/09/25 02:10:30;;;;;;;12.05;9.85;;;11.70;99.90;;;;;;5106854;28;20215;-80
2021/09/25 02:12:58;;;;;;;11.25;9.40;;;11.70;99.90;;;;;;5105380;28;20209;-80
2021/09/25 02:15:25;;;;;;;12.00;9.52;;;11.70;99.90;;;;;;5107728;28;20256;-80
2021/09/25 02:17:52;;;;;;;11.88;10.45;;;11.70;99.90;;;;;;5109160;28;20204;-82
2021/09/25 02:20:21;;;;;;;9.90;8.93;;;11.60;99.90;;;;;;5102014;28;20205;-82
2021/09/25 02:22:48;;;;;;;11.50;10.07;;;11.60;99.90;;;;;;5100838;28;20209;-82
2021/09/25 02:25:15;;;;;;;11.80;10.25;;;11.50;99.90;;;;;;5100302;28;20267;-82
2021/09/25 02:27:42;;;;;;;11.43;8.73;;;11.50;99.90;;;;;;5101873;28;20220;-81
2021/09/25 02:30:14;;;;;;;10.73;9.63;;;11.60;99.90;;;;;;5102195;28;20236;-80
2021/09/25 02:32:41;;;;;;;10.77;9.27;;;11.50;99.90;;;;;;5100688;28;20227;-80
2021/09/25 02:35:10;;;;;;;10.93;8.77;;;11.50;99.90;;;;;;5102064;28;20255;-79
2021/09/25 02:37:37;;;;;;;11.63;9.80;;;11.50;99.90;;;;;;5102336;28;20220;-82
2021/09/25 02:40:05;;;;;;;13.65;9.63;;;11.50;99.90;;;;;;5102468;28;20208;-81
2021/09/25 02:42:32;;;;;;;12.38;10.38;;;11.40;99.90;;;;;;5105129;28;20262;-82
2021/09/25 02:44:59;;;;;;;13.40;9.75;;;11.50;99.90;;;;;;5106922;28;20239;-80
2021/09/25 02:47:27;;;;;;;12.43;9.93;;;11.40;99.90;;;;;;5105594;28;20232;-81
2021/09/25 02:49:54;;;;;;;9.82;8.77;;;11.40;99.90;;;;;;5102272;28;20296;-81
2021/09/25 02:52:21;;;;;;;11.77;9.18;;;11.40;99.90;;;;;;5101671;28;20201;-81
2021/09/25 02:54:48;;;;;;;11.98;9.38;;;11.30;99.90;;;;;;5104542;28;20231;-81
2021/09/25 02:57:16;;;;;;;13.27;9.82;;;11.30;99.90;;;;;;5101380;28;20242;-81
2021/09/25 02:59:46;;;;;;;11.27;9.32;;;11.30;99.90;;;;;;5111501;28;20188;-80
2021/09/25 03:02:14;;;;;;;10.13;8.82;;;11.30;99.90;;;;;;5113994;28;20208;-80
2021/09/25 03:04:42;;;;;;;13.63;9.75;;;11.20;99.90;;;;;;5109012;28;20243;-80
2021/09/25 03:07:09;;;;;;;12.63;9.05;;;11.20;99.90;;;;;;5115170;28;20196;-80
2021/09/25 03:09:37;;;;;;;14.98;9.65;;;11.20;99.90;;;;;;5114563;28;20212;-81
2021/09/25 03:12:04;;;;;;;11.65;10.13;;;11.20;99.90;;;;;;5107355;28;20205;-80
2021/09/25 03:14:31;;;;;;;12.57;9.38;;;11.20;99.90;;;;;;5108620;28;20221;-80
2021/09/25 03:16:58;;;;;;;11.38;9.50;;;11.10;99.90;;;;;;5110701;28;20197;-80
2021/09/25 03:19:26;;;;;;;10.75;9.30;;;11.10;99.90;;;;;;5117016;28;20197;-81
2021/09/25 03:21:55;;;;;;;10.43;9.30;;;11.10;99.90;;;;;;5115809;28;20200;-80
2021/09/25 03:24:22;;;;;;;12.20;10.40;;;11.10;99.90;;;;;;5115440;28;20229;-80
2021/09/25 03:26:52;;;;;;;12.38;11.18;;;11.00;99.90;;;;;;5116408;28;20220;-80
2021/09/25 03:29:21;;;;;;;13.32;10.43;;;11.00;99.90;;;;;;5114654;28;20212;-81
2021/09/25 03:31:49;;;;;;;12.27;9.80;;;11.00;99.90;;;;;;5114986;28;20225;-79
2021/09/25 03:34:20;;;;;;;10.10;8.57;;;10.90;99.90;;;;;;5114791;28;20231;-81
2021/09/25 03:40:34;;;;;;;10.13;8.18;;;10.80;99.90;;;;;;5101604;28;20713;-79
2021/09/25 03:49:33;;;;;;;12.20;9.57;;;10.80;99.90;;;;;;5104429;28;20167;-80
2021/09/25 03:52:27;;;;;;;11.75;10.15;;;10.80;99.90;;;;;;5112580;28;20204;-81
2021/09/25 03:54:54;;;;;;;11.30;10.20;;;10.70;99.90;;;;;;5110120;28;20260;-81
2021/09/25 03:57:23;;;;;;;9.82;8.82;;;10.70;99.90;;;;;;5109525;28;20216;-80
2021/09/25 04:32:37;;;;;;;10.65;8.70;;;10.50;99.90;;;;;;4977714;28;20252;-80
2021/09/25 04:44:33;;;;;;;10.15;8.63;;;10.40;99.90;;;;;;5037538;22;20289;-80
2021/09/25 04:47:02;;;;;;;9.63;7.68;;;10.40;99.90;;;;;;5033880;28;20203;-80
2021/09/25 04:49:29;;;;;;;9.52;7.82;;;10.40;99.90;;;;;;5024552;28;20219;-80
2021/09/25 04:51:56;;;;;;;11.35;8.07;;;10.30;99.90;;;;;;5022021;28;20238;-79
2021/09/25 04:54:23;;;;;;;9.85;8.85;;;10.30;99.90;;;;;;5035481;28;20280;-80
2021/09/25 04:56:50;;;;;;;11.50;8.68;;;10.40;99.90;;;;;;5040432;28;20241;-80
2021/09/25 04:59:17;;;;;;;9.35;8.30;;;10.40;99.90;;;;;;5038800;28;20272;-80
2021/09/25 05:01:44;;;;;;;9.45;8.13;;;10.40;99.90;;;;;;5041238;28;20271;-80
2021/09/25 05:04:13;;;;;;;12.98;9.20;;;10.40;99.90;;;;;;5040662;28;20261;-80
2021/09/25 05:06:39;;;;;;;13.13;9.45;;;10.50;99.90;;;;;;5039416;28;20213;-80
2021/09/25 05:09:06;;;;;;;10.30;9.10;;;10.60;99.90;;;;;;5044136;28;20235;-80
2021/09/25 05:11:33;;;;;;;10.40;9.30;;;10.60;99.90;;;;;;5054718;28;20206;-80
2021/09/25 05:14:02;;;;;;;12.00;9.77;;;10.50;99.90;;;;;;5040171;28;20248;-80
2021/09/25 05:16:29;;;;;;;11.50;8.68;;;10.50;99.90;;;;;;5041254;28;20282;-81
2021/09/25 05:18:56;;;;;;;14.43;9.35;;;10.50;99.90;;;;;;5039612;28;20203;-80
2021/09/25 05:21:24;;;;;;;11.35;8.95;;;10.50;99.90;;;;;;5049227;28;20215;-80
2021/09/25 05:23:51;;;;;;;11.13;9.20;;;10.50;99.90;;;;;;5052569;28;20296;-80
2021/09/25 05:26:18;;;;;;;12.95;9.48;;;10.40;99.90;;;;;;5052875;28;20605;-80
2021/09/25 05:28:45;;;;;;;15.20;9.85;;;10.40;99.90;;;;;;5053664;28;20213;-78
2021/09/25 05:31:12;;;;;;;11.35;9.13;;;10.40;99.90;;;;;;5053933;28;20195;-78
2021/09/25 05:33:39;;;;;;;10.70;9.20;;;10.40;99.90;;;;;;5054237;28;20254;-80
2021/09/25 05:36:06;;;;;;;10.82;8.45;;;10.50;99.90;;;;;;5054407;28;20203;-80
2021/09/25 05:38:34;;;;;;;16.83;10.65;;;10.60;99.90;;;;;;5044432;28;20244;-80
2021/09/25 05:41:01;;;;;;;12.95;9.00;;;10.60;99.90;;;;;;5042275;28;20666;-81
2021/09/25 05:43:28;;;;;;;10.55;9.27;;;10.70;99.90;;;;;;5041950;28;20244;-81
2021/09/25 05:45:56;;;;;;;11.85;10.45;;;10.70;99.90;;;;;;5042050;28;20230;-81
2021/09/25 05:48:23;;;;;;;13.52;10.00;;;10.80;99.90;;;;;;5044942;28;20206;-80
2021/09/25 05:50:50;;;;;;;10.60;8.75;;;10.80;99.90;;;;;;5043429;28;20268;-80
2021/09/25 05:53:17;;;;;;;12.25;9.55;;;10.80;99.90;;;;;;5049812;28;20234;-79
2021/09/25 05:55:45;;;;;;;11.02;9.25;;;10.80;99.90;;;;;;5053732;28;20210;-80
2021/09/25 05:58:12;;;;;;;10.75;9.43;;;10.80;99.90;;;;;;5042414;28;20674;-80
2021/09/25 06:00:39;;;;;;;10.88;9.75;;;10.90;99.90;;;;;;5042866;28;20218;-80
2021/09/25 06:03:06;;;;;;;12.98;8.90;;;11.00;99.90;;;;;;5055391;28;20241;-78
2021/09/25 06:05:33;;;;;;;11.23;9.25;;;11.00;99.90;;;;;;5051209;28;20230;-79
2021/09/25 06:08:02;;;;;;;11.32;9.38;;;11.00;99.90;;;;;;5048856;28;20204;-79
2021/09/25 06:10:29;;;;;;;12.02;9.32;;;11.10;99.90;;;;;;5056898;28;20255;-78
2021/09/25 06:12:57;;;;;;;14.43;8.80;;;11.10;99.90;;;;;;5053336;28;20223;-79
2021/09/25 06:15:24;;;;;;;10.52;8.43;;;11.20;99.90;;;;;;5042400;28;20202;-80
2021/09/25 06:17:51;;;;;;;13.13;9.00;;;11.20;99.90;;;;;;5045197;28;20209;-80
2021/09/25 06:20:18;;;;;;;14.35;9.65;;;11.40;99.90;;;;;;5046699;28;20203;-80
2021/09/25 06:22:45;;;;;;;14.32;10.00;;;11.40;99.90;;;;;;5043019;28;20234;-80
2021/09/25 06:25:12;;;;;;;13.93;9.88;;;11.50;99.90;;;;;;5043122;28;20233;-80
2021/09/25 06:27:39;;;;;;;15.40;8.70;;;11.50;99.90;;;;;;5042217;28;20237;-80
2021/09/25 06:30:09;;;;;;;10.45;9.35;;;11.60;99.90;;;;;;5041595;28;20620;-79
2021/09/25 06:32:36;;;;;;;9.80;8.77;;;11.70;99.90;;;;;;5041466;28;20257;-81
2021/09/25 06:35:04;;;;;;;11.95;10.18;;;11.80;99.90;;;;;;5041760;28;20257;-80
2021/09/25 06:37:31;;;;;;;9.18;8.18;;;11.90;99.90;;;;;;5051326;28;20218;-79
2021/09/25 06:39:58;;;;;;;11.70;8.90;;;11.90;99.90;;;;;;5056496;28;20191;-79
2021/09/25 06:42:25;;;;;;;10.48;8.80;;;12.00;99.90;;;;;;5047565;28;20222;-80
2021/09/25 06:44:52;;;;;;;12.65;9.30;;;12.10;99.90;;;;;;5044769;28;20238;-79
2021/09/25 06:47:20;;;;;;;10.90;8.10;;;12.20;99.90;;;;;;5041069;28;20230;-80
2021/09/25 06:49:47;;;;;;;10.48;8.75;;;12.20;99.90;;;;;;5042325;28;20215;-81
2021/09/25 06:52:14;;;;;;;8.73;7.82;;;12.20;98.90;;;;;;5042490;28;20242;-80
2021/09/25 06:54:41;;;;;;;9.20;7.45;;;12.40;98.50;;;;;;5045233;28;20223;-80
2021/09/25 06:57:10;;;;;;;10.52;8.13;;;12.50;97.80;;;;;;5045613;28;20811;-80
2021/09/25 06:59:37;;;;;;;8.35;7.35;;;12.50;96.40;;;;;;5047905;28;20218;-80
2021/09/25 07:02:04;;;;;;;9.57;8.10;;;12.60;96.00;;;;;;5044790;28;20219;-80
2021/09/25 07:04:33;;;;;;;8.88;7.32;;;12.70;96.00;;;;;;5040254;28;20231;-81
2021/09/25 07:07:00;;;;;;;9.27;7.60;;;12.90;95.30;;;;;;5039965;28;20418;-80
2021/09/25 07:09:27;;;;;;;8.90;7.88;;;13.10;94.40;;;;;;5043239;28;20238;-79
2021/09/25 07:11:54;;;;;;;8.95;8.05;;;13.10;93.30;;;;;;5044956;28;20235;-79
2021/09/25 07:14:20;;;;;;;9.60;7.70;;;13.20;92.90;;;;;;5043039;28;20227;-81
2021/09/25 07:16:47;;;;;;;8.63;7.72;;;13.40;92.70;;;;;;5044308;28;20624;-79
2021/09/25 07:19:14;;;;;;;10.32;7.60;;;13.60;92.10;;;;;;5049554;28;20203;-78
2021/09/25 07:21:43;;;;;;;9.75;8.55;;;13.70;91.30;;;;;;5057878;28;20478;-81
2021/09/25 07:24:10;;;;;;;9.60;7.45;;;13.90;91.00;;;;;;5048658;28;20339;-80
2021/09/25 07:26:38;;;;;;;8.55;7.57;;;14.00;90.10;;;;;;5053455;28;20247;-82
2021/09/25 07:29:05;;;;;;;9.43;7.97;;;14.10;89.10;;;;;;5053949;28;20207;-80
2021/09/25 07:31:32;;;;;;;9.80;8.57;;;14.20;88.60;;;;;;5055488;28;20271;-80
2021/09/25 07:34:00;;;;;;;9.60;8.45;;;14.40;88.60;;;;;;5054750;28;20224;-80
2021/09/25 07:36:27;;;;;;;10.00;8.20;;;14.50;88.10;;;;;;5053807;28;20196;-79
2021/09/25 07:38:56;;;;;;;12.20;8.70;;;14.60;86.80;;;;;;5059119;28;20220;-81
2021/09/25 07:41:23;;;;;;;10.13;9.00;;;14.70;86.00;;;;;;5058971;28;20417;-80
2021/09/25 07:43:51;;;;;;;10.10;8.27;;;14.80;84.50;;;;;;5058787;28;20509;-78
2021/09/25 07:46:19;;;;;;;9.60;8.57;;;15.00;83.40;;;;;;5046467;28;20297;-80
2021/09/25 07:48:46;;;;;;;8.60;7.70;;;15.10;82.80;;;;;;5048548;28;20341;-80
2021/09/25 07:51:13;;;;;;;10.90;8.40;;;15.20;81.80;;;;;;5050597;28;20540;-79
2021/09/25 07:53:41;;;;;;;8.93;7.90;;;15.40;81.20;;;;;;5053176;28;20457;-80
2021/09/25 07:56:09;;;;;;;10.93;8.70;;;15.50;79.50;;;;;;5047944;28;20452;-80
2021/09/25 07:58:36;;;;;;;8.67;7.77;;;15.70;77.20;;;;;;5049527;28;20540;-78
2021/09/25 08:01:04;;;;;;;11.23;9.73;;;15.80;75.40;;;;;;5058666;28;20449;-78
2021/09/25 08:03:31;;;;;;;14.37;9.30;;;15.80;73.30;;;;;;5058449;28;20485;-80
2021/09/25 08:05:58;;;;;;;8.68;7.80;;;15.90;72.90;;;;;;5058914;28;20515;-81
2021/09/25 08:08:25;;;;;;;9.47;8.47;;;16.00;73.00;;;;;;5059064;28;20199;-79
2021/09/25 08:10:52;;;;;;;10.00;8.10;;;16.10;72.60;;;;;;5049839;28;20462;-82
2021/09/25 08:13:21;;;;;;;10.10;9.07;;;16.20;71.20;;;;;;5046136;28;20514;-80
2021/09/25 08:15:49;;;;;;;9.70;8.60;;;16.30;70.90;;;;;;5046817;28;20444;-81
2021/09/25 08:18:16;;;;;;;9.00;8.10;;;16.30;70.20;;;;;;5047357;28;20472;-80
2021/09/25 08:20:43;;;;;;;10.60;8.07;;;16.50;69.80;;;;;;5047881;28;20816;-80
2021/09/25 08:23:10;;;;;;;9.90;7.93;;;16.70;69.20;;;;;;5045316;28;20500;-78
2021/09/25 08:25:37;;;;;;;9.10;8.00;;;16.80;67.40;;;;;;5039271;28;20499;-78
2021/09/25 08:28:05;;;;;;;9.63;7.50;;;16.80;66.70;;;;;;5052286;28;20469;-78
2021/09/25 08:30:34;;;;;;;8.73;7.73;;;16.90;66.80;;;;;;5051007;28;20469;-76
2021/09/25 08:33:01;;;;;;;8.47;7.60;;;17.10;67.20;;;;;;5051577;28;20508;-77
2021/09/25 08:35:29;;;;;;;11.40;7.80;;;17.20;66.20;;;;;;5051430;28;20453;-78
2021/09/25 08:37:56;;;;;;;8.93;8.10;;;17.30;64.30;;;;;;5053844;28;20453;-76
2021/09/25 08:40:24;;;;;;;11.37;8.93;;;17.20;63.80;;;;;;5052031;28;20476;-76
2021/09/25 08:42:52;;;;;;;11.40;9.33;;;17.30;64.40;;;;;;5054555;28;20561;-79
2021/09/25 08:45:19;;;;;;;9.57;8.67;;;17.40;63.60;;;;;;5054844;28;20485;-77
2021/09/25 08:47:48;;;;;;;9.33;7.60;;;17.50;63.90;;;;;;5049532;28;20417;-77
2021/09/25 08:50:16;;;;;;;9.07;7.03;;;17.60;62.60;;;;;;5042590;28;20456;-77
2021/09/25 08:52:44;;;;;;;8.87;7.50;;;17.60;62.60;;;;;;5034760;28;20462;-77
2021/09/25 08:55:14;;;;;;;8.67;7.40;;;17.70;61.40;;;;;;5035139;28;20493;-77
2021/09/25 08:57:41;;;;;;;8.43;7.60;;;17.80;60.70;;;;;;5034680;28;20916;-76
2021/09/25 09:00:31;;;;;;;9.80;7.80;;;17.80;60.70;;;;;;5037296;28;20872;-77
2021/09/25 09:03:36;;;;;;;8.93;7.70;;;18.00;60.00;;;;;;5049460;28;20517;-76
2021/09/25 09:06:11;;;;;;;8.23;7.40;;;18.20;60.70;;;;;;5051939;28;20543;-76
2021/09/25 09:08:41;;;;;;;12.63;7.77;;;18.30;59.10;;;;;;5050043;28;20492;-76
2021/09/25 09:11:09;;;;;;;9.60;7.50;;;18.00;60.50;;;;;;5042899;28;20454;-76
2021/09/25 09:13:37;;;;;;;25.63;8.30;;;18.20;60.30;;;;;;5037511;28;21060;-76
2021/09/25 09:16:06;;;;;;;9.90;8.07;;;18.20;60.10;;;;;;5035784;28;20482;-77
2021/09/25 09:18:39;;;;;;;9.33;8.40;;;18.40;59.10;;;;;;5034859;28;20456;-77
2021/09/25 09:21:12;;;;;;;10.20;7.07;;;18.40;58.50;;;;;;5035366;28;20553;-77
2021/09/25 09:23:43;;;;;;;8.37;7.57;;;18.70;58.60;;;;;;5039845;28;20528;-77
2021/09/25 09:26:13;;;;;;;9.27;6.70;;;18.90;57.60;;;;;;5042552;28;20491;-77
2021/09/25 09:28:40;;;;;;;8.13;7.07;;;19.10;57.30;;;;;;5042087;28;20450;-77
2021/09/25 09:31:09;;;;;;;8.67;7.77;;;19.20;55.30;;;;;;5039737;28;20482;-77
2021/09/25 09:33:42;;;;;;;10.23;8.07;;;19.20;54.70;;;;;;5039234;28;20601;-77
2021/09/25 09:36:19;;;;;;;12.63;8.00;;;18.80;57.40;;;;;;5036433;28;20485;-77
2021/09/25 09:38:50;;;;;;;8.07;6.70;;;18.90;57.60;;;;;;5036320;28;20967;-77
2021/09/25 09:41:19;;;;;;;11.63;7.00;;;19.00;57.00;;;;;;5035731;28;20449;-78
2021/09/25 09:43:46;;;;;;;7.57;6.67;;;19.20;55.90;;;;;;5036835;28;20482;-77
2021/09/25 09:46:14;;;;;;;7.13;6.43;;;19.40;55.80;;;;;;5035844;28;20571;-78
2021/09/25 09:48:44;;;;;;;7.63;6.87;;;19.70;54.70;;;;;;5034112;28;20527;-77
2021/09/25 09:51:10;;;;;;;7.73;6.93;;;19.80;53.60;;;;;;5034243;28;20453;-78
2021/09/25 09:53:46;;;;;;;9.30;7.67;;;20.00;53.30;;;;;;5035034;28;20472;-77
2021/09/25 09:56:21;;;;;;;7.90;7.10;;;19.90;53.10;;;;;;5033554;28;20515;-77
2021/09/25 09:58:57;;;;;;;7.40;6.70;;;20.00;53.30;;;;;;5033891;28;20495;-78
2021/09/25 10:01:25;;;;;;;6.83;6.23;;;19.80;52.30;;;;;;5033510;28;20559;-78
2021/09/25 10:03:53;;;;;;;7.23;6.17;;;19.60;53.40;;;;;;5034675;28;20511;-78
2021/09/25 10:06:20;;;;;;;7.67;6.97;;;19.70;52.80;;;;;;5035334;28;20576;-77
2021/09/25 10:08:48;;;;;;;7.70;6.87;;;19.70;53.80;;;;;;5035413;28;20456;-78
2021/09/25 10:11:16;;;;;;;8.20;6.50;;;19.80;53.20;;;;;;5035789;28;20462;-78
2021/09/25 10:13:43;;;;;;;7.90;7.10;;;20.00;52.50;;;;;;5035702;28;20462;-77
2021/09/25 10:16:12;;;;;;;7.57;6.77;;;20.00;51.40;;;;;;5037815;28;20447;-78
2021/09/25 10:18:40;;;;;;;7.30;6.60;;;20.10;51.10;;;;;;5035554;28;20494;-78
2021/09/25 10:21:10;;;;;;;7.73;6.97;;;20.40;50.80;;;;;;5036196;28;20475;-78
2021/09/25 10:23:41;;;;;;;7.30;6.30;;;20.40;50.60;;;;;;5036547;28;20462;-77
2021/09/25 10:26:09;;;;;;;7.27;6.57;;;20.30;50.70;;;;;;5042341;28;20558;-77
2021/09/25 10:28:36;;;;;;;6.77;6.17;;;20.30;50.70;;;;;;5037018;28;20436;-77
2021/09/25 10:31:03;;;;;;;7.57;6.27;;;20.50;49.60;;;;;;5035527;28;20540;-78
2021/09/25 10:33:30;;;;;;;6.37;5.77;;;20.60;49.40;;;;;;5035049;28;20479;-76
2021/09/25 10:35:57;;;;;;;6.47;5.93;;;20.60;49.40;;;;;;5034543;28;20428;-78
2021/09/25 10:38:38;;;;;;;5.93;5.40;;;20.80;48.80;;;;;;5034004;28;20537;-78
2021/09/25 10:41:16;;;;;;;7.10;6.40;;;20.80;49.60;;;;;;5033746;28;20532;-77
2021/09/25 10:43:46;;;;;;;7.13;6.40;;;20.90;49.40;;;;;;5038624;28;20579;-79
2021/09/25 10:46:15;;;;;;;6.03;5.40;;;20.90;49.30;;;;;;5022927;28;20496;-79
2021/09/25 10:48:50;;;;;;;6.23;5.73;;;21.00;49.80;;;;;;5042557;28;20460;-80
2021/09/25 10:51:20;;;;;;;5.70;5.10;;;21.10;49.90;;;;;;5043378;28;20479;-80
2021/09/25 10:53:51;;;;;;;7.13;6.27;;;21.40;49.20;;;;;;5044909;28;20478;-79
2021/09/25 10:56:20;;;;;;;5.57;5.07;;;21.60;49.20;;;;;;5045732;28;20796;-81
2021/09/25 10:58:55;;;;;;;6.80;6.20;;;21.70;47.80;;;;;;5046193;28;20945;-80
2021/09/25 11:01:33;;;;;;;6.10;5.53;;;21.60;47.90;;;;;;5048510;28;20786;-79
2021/09/25 11:04:08;;;;;;;6.50;5.90;;;21.60;48.30;;;;;;5044080;28;20573;-79
2021/09/25 11:06:51;;;;;;;6.17;5.40;;;21.50;48.10;;;;;;5044472;28;20535;-80
2021/09/25 11:09:31;;;;;;;6.30;5.70;;;21.60;47.60;;;;;;5043799;28;20440;-79
2021/09/25 11:12:02;;;;;;;5.40;4.90;;;21.70;47.00;;;;;;5044236;28;20457;-80
2021/09/25 11:14:31;;;;;;;8.73;6.87;;;21.80;47.30;;;;;;5043571;28;20539;-80
2021/09/25 11:17:07;;;;;;;5.90;5.40;;;21.60;47.10;;;;;;5044618;28;20451;-80
2021/09/25 11:19:43;;;;;;;10.83;6.10;;;21.80;47.00;;;;;;5042456;28;20460;-80
2021/09/25 11:22:14;;;;;;;5.97;5.47;;;21.80;46.50;;;;;;5055490;28;20472;-79
2021/09/25 11:24:45;;;;;;;5.77;5.20;;;21.60;46.10;;;;;;5053723;28;20488;-79
2021/09/25 11:27:15;;;;;;;6.00;5.50;;;21.90;46.50;;;;;;5043951;28;20877;-81
2021/09/25 11:29:58;;;;;;;5.67;5.17;;;22.20;45.90;;;;;;5048062;28;20457;-79
2021/09/25 11:32:27;;;;;;;6.70;6.10;;;22.30;45.60;;;;;;5044232;28;20454;-80
2021/09/25 11:34:55;;;;;;;6.27;5.67;;;22.40;45.80;;;;;;5050066;28;20848;-80
2021/09/25 11:37:22;;;;;;;9.93;5.90;;;22.20;44.90;;;;;;5050570;28;20471;-79
2021/09/25 11:39:52;;;;;;;6.67;5.60;;;22.20;45.20;;;;;;5042217;28;20454;-79
2021/09/25 11:42:20;;;;;;;6.23;5.53;;;22.30;44.60;;;;;;5042562;28;20429;-80
2021/09/25 11:44:54;;;;;;;6.60;5.77;;;22.40;45.10;;;;;;5042314;28;20536;-80
2021/09/25 11:47:30;;;;;;;5.60;5.10;;;22.50;44.00;;;;;;5041629;28;20508;-80
2021/09/25 11:50:10;;;;;;;6.60;5.93;;;22.60;44.10;;;;;;5044112;28;20461;-81
2021/09/25 11:52:37;;;;;;;5.67;5.03;;;22.60;44.40;;;;;;5042313;28;20438;-79
2021/09/25 11:55:08;;;;;;;5.60;5.10;;;22.60;43.60;;;;;;5046157;28;20449;-79
2021/09/25 11:57:36;;;;;;;5.70;5.10;;;22.60;43.80;;;;;;5045257;28;20442;-80
2021/09/25 12:00:17;;;;;;;4.97;4.57;;;22.60;43.00;;;;;;5041566;28;20796;-80
2021/09/25 12:02:46;;;;;;;6.03;5.43;;;22.70;42.00;;;;;;5041886;28;20527;-80
2021/09/25 12:05:29;;;;;;;6.60;5.20;;;22.80;42.30;;;;;;5042620;28;20486;-79
2021/09/25 12:07:58;;;;;;;6.90;5.40;;;22.80;41.40;;;;;;5042129;28;20586;-80
2021/09/25 12:10:28;;;;;;;5.70;5.20;;;22.90;41.50;;;;;;5044347;28;20461;-80
2021/09/25 12:12:57;;;;;;;5.63;5.13;;;22.80;42.10;;;;;;5049345;28;20472;-79
2021/09/25 12:15:27;;;;;;;5.33;4.90;;;23.00;41.60;;;;;;5042525;28;20434;-80
2021/09/25 12:18:15;;;;;;;5.90;5.40;;;22.90;41.50;;;;;;5042143;28;20529;-80
2021/09/25 12:20:43;;;;;;;6.50;5.10;;;23.20;41.80;;;;;;5041655;28;20493;-80
2021/09/25 12:23:11;;;;;;;7.57;5.63;;;23.40;42.80;;;;;;5042404;28;20838;-79
2021/09/25 12:25:43;;;;;;;5.90;5.30;;;23.50;40.20;;;;;;5041409;28;20417;-80
2021/09/25 12:28:39;;;;;;;6.17;5.67;;;23.70;40.20;;;;;;5041567;28;20460;-80
2021/09/25 12:31:08;;;;;;;5.27;4.63;;;23.80;39.80;;;;;;5044432;28;20925;-81
2021/09/25 12:33:36;;;;;;;5.83;5.27;;;23.90;39.50;;;;;;5049614;28;20490;-80
2021/09/25 12:36:07;;;;;;;8.33;5.30;;;23.80;39.50;;;;;;5044060;28;20460;-80
2021/09/25 12:38:37;;;;;;;5.60;5.10;;;23.70;39.50;;;;;;5043634;28;20462;-79
2021/09/25 12:41:07;;;;;;;5.80;5.37;;;23.80;39.60;;;;;;5042709;28;20870;-79
2021/09/25 12:43:36;;;;;;;5.30;4.90;;;23.80;40.40;;;;;;5042791;28;20489;-81
2021/09/25 12:46:11;;;;;;;5.67;5.10;;;23.80;39.90;;;;;;5048397;28;20454;-80
2021/09/25 12:49:00;;;;;;;5.90;5.40;;;23.90;40.50;;;;;;5048215;28;20958;-80
2021/09/25 12:51:28;;;;;;;5.40;4.97;;;24.00;39.50;;;;;;5047188;28;20473;-79
2021/09/25 12:53:55;;;;;;;6.03;5.53;;;24.00;39.20;;;;;;5045764;28;20838;-79
2021/09/25 12:56:29;;;;;;;4.97;4.57;;;24.10;39.40;;;;;;5043406;28;20489;-79
2021/09/25 12:58:58;;;;;;;5.57;5.07;;;24.00;40.20;;;;;;5047983;28;20442;-79
2021/09/25 13:01:27;;;;;;;7.57;5.60;;;23.90;39.90;;;;;;5047947;28;20431;-79
2021/09/25 13:03:54;;;;;;;5.07;4.57;;;23.80;40.20;;;;;;5053183;28;20504;-79
2021/09/25 13:06:23;;;;;;;6.53;5.20;;;23.80;41.60;;;;;;5056620;28;20427;-79
2021/09/25 13:08:57;;;;;;;5.10;4.60;;;23.90;40.90;;;;;;5054085;28;20449;-79
2021/09/25 13:11:26;;;;;;;5.50;5.00;;;24.10;40.20;;;;;;5044776;28;20541;-80
2021/09/25 13:14:11;;;;;;;5.40;5.00;;;24.30;39.70;;;;;;5050844;28;20474;-79
2021/09/25 13:16:39;;;;;;;5.90;5.50;;;24.50;38.70;;;;;;5053136;28;20424;-81
2021/09/25 13:19:06;;;;;;;5.50;5.00;;;24.50;38.60;;;;;;5052978;28;20479;-79
2021/09/25 13:21:36;;;;;;;6.03;5.40;;;24.50;39.10;;;;;;5042763;28;20469;-80
2021/09/25 13:24:06;;;;;;;6.10;5.60;;;24.60;38.50;;;;;;5040966;28;20468;-80
2021/09/25 13:26:35;;;;;;;5.43;5.03;;;24.70;38.00;;;;;;5038973;28;20464;-79
2021/09/25 13:29:02;;;;;;;5.83;5.33;;;24.70;38.20;;;;;;5039239;28;20461;-79
2021/09/25 13:31:29;;;;;;;6.23;5.63;;;24.70;37.90;;;;;;5042780;28;20952;-79
2021/09/25 13:33:56;;;;;;;8.23;5.90;;;24.60;38.50;;;;;;5041682;28;20786;-79
2021/09/25 13:36:24;;;;;;;6.60;5.57;;;24.10;39.60;;;;;;5042394;28;20533;-81
2021/09/25 13:38:51;;;;;;;6.37;5.30;;;24.00;39.80;;;;;;5043376;28;20490;-78
2021/09/25 13:41:20;;;;;;;8.40;7.60;;;23.90;40.30;;;;;;5042253;28;20450;-81
2021/09/25 13:43:55;;;;;;;5.77;5.27;;;24.20;40.10;;;;;;5042830;28;20452;-80